createdAt,value
2023-02-27T00:01:07.042Z,5.90
2023-02-27T00:03:08.481Z,6.00
2023-02-27T00:05:10.930Z,6.03
2023-02-27T00:07:12.878Z,5.78
2023-02-27T00:09:14.366Z,6.40
2023-02-27T00:11:15.885Z,5.95
2023-02-27T00:13:17.451Z,5.78
2023-02-27T00:15:20.362Z,5.78
2023-02-27T00:17:21.898Z,6.00
2023-02-27T00:19:23.749Z,5.80
2023-02-27T00:21:25.700Z,6.00
2023-02-27T00:23:28.056Z,6.13
2023-02-27T00:25:29.524Z,6.63
2023-02-27T00:27:32.637Z,6.47
2023-02-27T00:29:34.080Z,6.40
2023-02-27T00:31:35.727Z,6.78
2023-02-27T00:33:37.216Z,5.97
2023-02-27T00:35:38.671Z,6.55
2023-02-27T00:37:40.674Z,6.22
2023-02-27T00:39:42.222Z,6.05
2023-02-27T00:41:43.673Z,6.35
2023-02-27T00:43:45.248Z,6.20
2023-02-27T00:45:48.369Z,6.55
2023-02-27T00:47:49.864Z,6.00
2023-02-27T00:49:51.359Z,5.97
2023-02-27T00:51:53.422Z,6.45
2023-02-27T00:53:54.870Z,6.45
2023-02-27T00:55:56.368Z,6.20
2023-02-27T00:57:57.808Z,6.25
2023-02-27T00:59:59.351Z,5.68
2023-02-27T01:02:00.867Z,6.03
2023-02-27T01:04:02.508Z,5.88
2023-02-27T01:06:04.185Z,6.32
2023-02-27T01:08:05.704Z,6.32
2023-02-27T01:10:08.838Z,6.40
2023-02-27T01:12:10.385Z,6.28
2023-02-27T01:14:11.877Z,6.38
2023-02-27T01:16:14.467Z,6.45
2023-02-27T01:18:15.992Z,5.95
2023-02-27T01:20:17.946Z,6.43
2023-02-27T01:22:19.392Z,6.50
2023-02-27T01:24:21.925Z,6.18
2023-02-27T01:26:23.421Z,6.30
2023-02-27T01:28:25.050Z,6.80
2023-02-27T01:30:27.110Z,5.80
2023-02-27T01:32:28.763Z,6.05
2023-02-27T01:34:31.120Z,6.30
2023-02-27T01:36:33.656Z,6.60
2023-02-27T01:38:35.237Z,5.63
2023-02-27T01:40:38.350Z,6.70
2023-02-27T01:42:39.810Z,6.35
2023-02-27T01:45:20.024Z,6.32
2023-02-27T01:47:21.484Z,6.60
2023-02-27T01:49:32.431Z,5.97
2023-02-27T01:51:38.042Z,6.22
2023-02-27T01:53:41.161Z,6.35
2023-02-27T01:55:43.420Z,6.30
2023-02-27T01:57:46.420Z,6.13
2023-02-27T01:59:47.931Z,5.45
2023-02-27T02:01:50.810Z,6.07
2023-02-27T02:04:10.288Z,5.45
2023-02-27T02:06:12.471Z,5.93
2023-02-27T02:08:18.241Z,5.93
2023-02-27T02:10:21.526Z,5.95
2023-02-27T02:12:27.872Z,5.57
2023-02-27T02:14:29.342Z,6.00
2023-02-27T02:16:59.552Z,5.45
2023-02-27T02:19:43.281Z,6.13
2023-02-27T02:21:44.671Z,5.90
2023-02-27T02:24:23.942Z,4.85
2023-02-27T02:27:03.838Z,5.68
2023-02-27T02:29:34.634Z,5.90
2023-02-27T02:32:14.996Z,5.65
2023-02-27T02:34:25.751Z,5.55
2023-02-27T02:36:51.157Z,5.90
2023-02-27T02:39:10.766Z,5.68
2023-02-27T02:41:22.778Z,6.00
2023-02-27T02:44:02.952Z,5.38
2023-02-27T02:46:50.781Z,5.35
2023-02-27T02:49:11.036Z,5.55
2023-02-27T02:51:44.423Z,5.65
2023-02-27T02:53:58.307Z,5.25
2023-02-27T02:56:14.297Z,5.88
2023-02-27T02:58:32.679Z,6.43
2023-02-27T03:00:43.933Z,5.05
2023-02-27T03:03:11.550Z,4.85
2023-02-27T03:05:24.613Z,5.55
2023-02-27T03:07:32.904Z,5.28
2023-02-27T03:09:41.388Z,5.40
2023-02-27T03:11:47.430Z,4.97
2023-02-27T03:13:55.100Z,5.07
2023-02-27T03:16:07.866Z,5.03
2023-02-27T03:18:34.853Z,4.72
2023-02-27T03:20:47.205Z,5.22
2023-02-27T03:22:55.279Z,5.15
2023-02-27T03:25:00.384Z,5.38
2023-02-27T03:27:03.958Z,4.90
2023-02-27T03:29:11.546Z,5.03
2023-02-27T03:31:23.302Z,5.13
2023-02-27T03:33:31.219Z,6.20
2023-02-27T03:36:17.162Z,4.75
2023-02-27T03:38:31.112Z,5.47
2023-02-27T03:40:51.719Z,5.45
2023-02-27T03:43:06.001Z,5.35
2023-02-27T03:45:18.764Z,6.13
2023-02-27T03:47:20.841Z,5.53
2023-02-27T03:49:22.836Z,6.57
2023-02-27T03:51:27.975Z,6.38
2023-02-27T03:53:41.575Z,6.00
2023-02-27T03:55:47.620Z,5.10
2023-02-27T03:57:51.802Z,5.13
2023-02-27T03:59:53.384Z,5.40
2023-02-27T04:01:57.023Z,5.63
2023-02-27T04:04:04.924Z,5.10
2023-02-27T04:06:26.849Z,5.45
2023-02-27T04:08:53.087Z,5.30
2023-02-27T04:11:01.817Z,5.47
2023-02-27T04:15:46.413Z,4.93
2023-02-27T04:18:04.174Z,5.13
2023-02-27T04:20:21.044Z,4.77
2023-02-27T04:22:38.175Z,5.50
2023-02-27T04:24:54.507Z,6.18
2023-02-27T04:27:18.346Z,5.18
2023-02-27T04:29:39.849Z,6.43
2023-02-27T04:32:00.990Z,5.70
2023-02-27T04:34:18.416Z,5.65
2023-02-27T04:36:56.327Z,5.15
2023-02-27T04:39:09.375Z,4.95
2023-02-27T04:41:21.274Z,5.45
2023-02-27T04:43:24.759Z,5.63
2023-02-27T04:45:28.660Z,5.28
2023-02-27T04:47:36.649Z,4.82
2023-02-27T04:49:45.746Z,5.53
2023-02-27T04:52:00.886Z,4.75
2023-02-27T04:54:12.278Z,5.88
2023-02-27T04:56:19.666Z,5.20
2023-02-27T04:58:27.411Z,4.88
2023-02-27T05:00:31.833Z,5.33
2023-02-27T05:02:37.800Z,6.20
2023-02-27T05:04:43.654Z,5.78
2023-02-27T05:06:48.409Z,6.43
2023-02-27T05:09:08.019Z,6.20
2023-02-27T05:11:18.304Z,6.47
2023-02-27T05:13:30.740Z,5.28
2023-02-27T05:15:54.594Z,5.45
2023-02-27T05:18:06.466Z,5.60
2023-02-27T05:20:09.172Z,5.38
2023-02-27T05:22:35.193Z,8.65
2023-02-27T05:24:41.781Z,7.05
2023-02-27T05:27:07.750Z,6.00
2023-02-27T05:29:23.765Z,6.50
2023-02-27T05:32:00.503Z,5.82
2023-02-27T05:34:23.041Z,5.32
2023-02-27T05:36:39.976Z,6.47
2023-02-27T05:38:55.739Z,5.57
2023-02-27T05:41:03.534Z,5.75
2023-02-27T05:43:10.874Z,6.27
2023-02-27T05:45:22.334Z,6.10
2023-02-27T05:47:30.369Z,5.78
2023-02-27T05:49:43.078Z,6.40
2023-02-27T05:51:48.123Z,5.65
2023-02-27T05:53:57.603Z,5.95
2023-02-27T05:56:04.373Z,6.68
2023-02-27T05:58:09.811Z,5.97
2023-02-27T06:00:18.194Z,7.47
2023-02-27T06:02:19.781Z,7.10
2023-02-27T06:04:21.469Z,7.35
2023-02-27T06:06:23.215Z,6.80
2023-02-27T06:08:25.345Z,6.40
2023-02-27T06:10:27.002Z,7.50
2023-02-27T06:12:28.471Z,7.15
2023-02-27T06:14:29.972Z,7.05
2023-02-27T06:16:31.551Z,6.88
2023-02-27T06:18:33.115Z,7.18
2023-02-27T06:20:34.611Z,7.32
2023-02-27T06:22:36.152Z,8.40
2023-02-27T06:24:37.769Z,7.32
2023-02-27T06:26:39.265Z,6.90
2023-02-27T06:28:42.280Z,6.72
2023-02-27T06:30:46.199Z,7.07
2023-02-27T06:32:47.963Z,7.70
2023-02-27T06:34:49.591Z,7.80
2023-02-27T06:36:51.110Z,6.53
2023-02-27T06:38:52.572Z,8.00
2023-02-27T06:40:54.124Z,7.35
2023-02-27T06:42:55.618Z,6.95
2023-02-27T06:44:57.070Z,7.13
2023-02-27T06:46:58.538Z,6.78
2023-02-27T06:49:00.022Z,6.82
2023-02-27T06:51:01.470Z,6.43
2023-02-27T06:53:03.178Z,7.32
2023-02-27T06:55:06.741Z,6.97
2023-02-27T06:57:08.437Z,6.28
2023-02-27T06:59:09.932Z,7.18
2023-02-27T07:01:12.218Z,6.72
2023-02-27T07:03:14.018Z,7.75
2023-02-27T07:05:15.651Z,6.78
2023-02-27T07:07:33.939Z,6.50
2023-02-27T07:09:38.033Z,7.05
2023-02-27T07:11:39.488Z,8.02
2023-02-27T07:13:40.943Z,7.65
2023-02-27T07:15:42.546Z,7.80
2023-02-27T07:17:44.001Z,7.43
2023-02-27T07:19:45.564Z,7.15
2023-02-27T07:21:47.066Z,7.38
2023-02-27T07:23:48.585Z,7.63
2023-02-27T07:25:50.776Z,7.40
2023-02-27T07:27:52.323Z,7.38
2023-02-27T07:29:54.052Z,8.60
2023-02-27T07:31:55.557Z,8.45
2023-02-27T07:33:57.263Z,8.68
2023-02-27T07:35:58.758Z,7.95
2023-02-27T07:38:00.253Z,8.30
2023-02-27T07:40:01.824Z,8.57
2023-02-27T07:42:03.458Z,8.65
2023-02-27T07:44:06.964Z,7.82
2023-02-27T07:46:08.464Z,8.13
2023-02-27T07:48:10.817Z,9.68
2023-02-27T07:50:14.099Z,8.43
2023-02-27T07:52:15.533Z,8.88
2023-02-27T07:54:17.184Z,9.23
2023-02-27T07:56:18.684Z,8.40
2023-02-27T07:58:20.181Z,8.50
2023-02-27T08:00:22.291Z,9.20
2023-02-27T08:02:23.869Z,9.50
2023-02-27T08:04:25.471Z,9.30
2023-02-27T08:06:27.182Z,9.30
2023-02-27T08:08:29.603Z,8.10
2023-02-27T08:10:31.087Z,7.95
2023-02-27T08:12:32.649Z,6.88
2023-02-27T08:14:34.269Z,8.88
2023-02-27T08:16:35.860Z,8.45
2023-02-27T08:18:37.398Z,8.00
2023-02-27T08:20:38.842Z,8.68
2023-02-27T08:22:41.432Z,8.45
2023-02-27T08:24:43.021Z,7.55
2023-02-27T08:26:44.517Z,8.35
2023-02-27T08:28:46.014Z,6.78
2023-02-27T08:30:48.994Z,7.82
2023-02-27T08:32:50.475Z,7.47
2023-02-27T08:34:52.650Z,8.00
2023-02-27T08:36:54.438Z,7.45
2023-02-27T08:38:56.007Z,6.75
2023-02-27T08:40:57.526Z,7.13
2023-02-27T08:42:58.992Z,6.80
2023-02-27T08:45:00.664Z,6.70
2023-02-27T08:47:02.143Z,5.53
2023-02-27T08:49:03.699Z,6.00
2023-02-27T08:51:05.293Z,5.03
2023-02-27T08:53:06.736Z,5.68
2023-02-27T08:55:08.916Z,4.60
2023-02-27T08:57:10.360Z,4.50
2023-02-27T08:59:11.834Z,5.13
2023-02-27T09:01:13.334Z,4.95
2023-02-27T09:03:15.113Z,4.68
2023-02-27T09:05:16.946Z,5.18
2023-02-27T09:07:18.526Z,5.15
2023-02-27T09:09:23.592Z,6.55
2023-02-27T09:11:25.918Z,6.38
2023-02-27T09:13:28.508Z,4.38
2023-02-27T09:15:31.794Z,4.57
2023-02-27T09:17:33.494Z,5.20
2023-02-27T09:19:35.014Z,5.18
2023-02-27T09:21:37.334Z,4.43
2023-02-27T09:23:39.429Z,4.20
2023-02-27T09:25:40.878Z,4.43
2023-02-27T09:27:42.327Z,4.22
2023-02-27T09:29:43.804Z,4.13
2023-02-27T09:31:45.745Z,4.40
2023-02-27T09:33:47.336Z,3.20
2023-02-27T09:35:48.801Z,2.63
2023-02-27T09:37:50.297Z,3.17
2023-02-27T09:39:51.819Z,3.22
2023-02-27T09:41:59.450Z,3.95
2023-02-27T09:44:01.710Z,3.20
2023-02-27T09:46:05.484Z,3.90
2023-02-27T09:48:34.419Z,3.00
2023-02-27T09:50:37.108Z,2.80
2023-02-27T09:52:39.530Z,3.47
2023-02-27T09:54:43.106Z,3.03
2023-02-27T09:56:52.290Z,3.40
2023-02-27T09:59:29.128Z,4.93
2023-02-27T10:01:40.246Z,2.80
2023-02-27T10:03:59.740Z,2.65
2023-02-27T10:06:07.440Z,3.10
2023-02-27T10:08:21.978Z,2.78
2023-02-27T10:10:35.799Z,2.67
2023-02-27T10:12:54.691Z,2.40
2023-02-27T10:15:09.971Z,2.40
2023-02-27T10:17:34.863Z,1.92
2023-02-27T10:19:38.446Z,2.08
2023-02-27T10:21:44.661Z,2.30
2023-02-27T10:23:56.443Z,2.40
2023-02-27T10:25:58.736Z,1.70
2023-02-27T10:28:16.403Z,1.63
2023-02-27T10:30:34.698Z,2.20
2023-02-27T10:32:39.747Z,3.22
2023-02-27T10:34:43.829Z,1.70
2023-02-27T10:36:46.687Z,1.38
2023-02-27T10:38:54.205Z,3.67
2023-02-27T10:40:58.748Z,3.05
2023-02-27T10:43:03.233Z,2.50
2023-02-27T10:45:06.216Z,1.40
2023-02-27T10:47:15.346Z,2.35
2023-02-27T10:49:19.919Z,1.80
2023-02-27T10:51:26.336Z,2.38
2023-02-27T10:53:28.252Z,1.80
2023-02-27T10:55:32.482Z,3.15
2023-02-27T10:57:42.916Z,1.75
2023-02-27T10:59:52.829Z,1.33
2023-02-27T11:01:59.546Z,3.20
2023-02-27T11:04:01.188Z,1.10
2023-02-27T11:06:23.610Z,1.63
2023-02-27T11:08:28.582Z,1.60
2023-02-27T11:10:30.113Z,1.70
2023-02-27T11:12:34.082Z,1.60
2023-02-27T11:14:35.526Z,3.20
2023-02-27T11:16:50.608Z,2.47
2023-02-27T11:18:54.354Z,3.00
2023-02-27T11:21:14.239Z,2.00
2023-02-27T11:23:21.812Z,3.00
2023-02-27T11:25:25.525Z,2.35
2023-02-27T11:27:29.636Z,1.80
2023-02-27T11:29:33.555Z,1.60
2023-02-27T11:31:37.811Z,1.63
2023-02-27T11:33:47.930Z,2.63
2023-02-27T11:35:57.452Z,1.70
2023-02-27T11:38:07.081Z,1.33
2023-02-27T11:40:14.263Z,1.05
2023-02-27T11:42:26.108Z,1.20
2023-02-27T11:44:49.637Z,2.15
2023-02-27T11:46:51.015Z,2.00
2023-02-27T11:49:19.839Z,1.30
2023-02-27T11:51:56.630Z,1.20
2023-02-27T11:54:34.632Z,1.23
2023-02-27T11:56:41.627Z,1.35
2023-02-27T11:59:05.720Z,1.05
2023-02-27T12:01:15.194Z,1.02
2023-02-27T12:03:22.608Z,1.15
2023-02-27T12:05:36.334Z,1.50
2023-02-27T12:08:24.127Z,1.20
2023-02-27T12:10:29.768Z,0.90
2023-02-27T12:12:41.491Z,0.90
2023-02-27T12:14:50.445Z,1.20
2023-02-27T12:17:01.494Z,0.85
2023-02-27T12:19:11.633Z,1.05
2023-02-27T12:21:32.268Z,0.95
2023-02-27T12:23:50.131Z,0.73
2023-02-27T12:25:57.032Z,0.85
2023-02-27T12:28:09.198Z,1.10
2023-02-27T12:30:24.284Z,0.93
2023-02-27T12:32:25.972Z,1.30
2023-02-27T12:34:38.383Z,1.15
2023-02-27T12:36:39.865Z,1.48
2023-02-27T12:38:41.910Z,1.48
2023-02-27T12:40:51.962Z,1.13
2023-02-27T12:43:16.374Z,1.00
2023-02-27T12:45:44.174Z,1.20
2023-02-27T12:48:16.109Z,1.13
2023-02-27T12:50:20.651Z,1.65
2023-02-27T12:52:45.427Z,1.30
2023-02-27T12:55:23.486Z,0.88
2023-02-27T12:57:49.984Z,0.90
2023-02-27T13:00:29.795Z,0.93
2023-02-27T13:02:50.204Z,1.30
2023-02-27T13:05:02.548Z,1.35
2023-02-27T13:07:12.141Z,1.25
2023-02-27T13:09:38.252Z,1.40
2023-02-27T13:11:48.810Z,1.20
2023-02-27T13:13:59.286Z,1.05
2023-02-27T13:16:09.524Z,1.00
2023-02-27T13:18:28.018Z,1.10
2023-02-27T13:20:49.995Z,1.10
2023-02-27T13:23:27.680Z,1.00
2023-02-27T13:25:32.342Z,1.30
2023-02-27T13:27:45.385Z,1.10
2023-02-27T13:30:13.972Z,1.00
2023-02-27T13:32:41.239Z,1.20
2023-02-27T13:35:00.578Z,1.10
2023-02-27T13:37:04.994Z,1.20
2023-02-27T13:39:52.830Z,1.38
2023-02-27T13:41:54.349Z,1.27
2023-02-27T13:44:20.022Z,1.50
2023-02-27T13:46:30.325Z,1.05
2023-02-27T13:48:46.345Z,1.30
2023-02-27T13:50:50.483Z,1.30
2023-02-27T13:52:52.820Z,0.85
2023-02-27T13:54:57.257Z,0.93
2023-02-27T13:57:07.192Z,1.10
2023-02-27T13:59:19.372Z,1.30
2023-02-27T14:01:27.506Z,1.25
2023-02-27T14:03:32.317Z,1.10
2023-02-27T14:05:43.265Z,1.33
2023-02-27T14:07:53.982Z,1.15
2023-02-27T14:10:03.180Z,0.80
2023-02-27T14:12:20.450Z,1.00
2023-02-27T14:14:36.356Z,0.80
2023-02-27T14:16:37.925Z,0.82
2023-02-27T14:18:54.889Z,0.95
2023-02-27T14:20:56.348Z,1.08
2023-02-27T14:23:21.920Z,0.90
2023-02-27T14:25:30.504Z,0.93
2023-02-27T14:27:44.028Z,0.90
2023-02-27T14:29:47.887Z,0.98
2023-02-27T14:31:51.249Z,1.10
2023-02-27T14:33:55.873Z,1.00
2023-02-27T14:36:03.693Z,1.05
2023-02-27T14:38:10.856Z,0.73
2023-02-27T14:40:30.051Z,1.38
2023-02-27T14:43:05.217Z,1.10
2023-02-27T14:45:24.316Z,0.90
2023-02-27T14:47:36.788Z,0.70
2023-02-27T14:49:38.324Z,1.10
2023-02-27T14:51:39.894Z,1.20
2023-02-27T14:53:41.645Z,1.00
2023-02-27T14:55:53.792Z,1.38
2023-02-27T14:57:57.290Z,1.00
2023-02-27T14:59:58.777Z,1.85
2023-02-27T15:02:04.168Z,1.17
2023-02-27T15:04:08.472Z,1.08
2023-02-27T15:06:19.748Z,1.08
2023-02-27T15:08:25.252Z,1.25
2023-02-27T15:10:33.369Z,0.68
2023-02-27T15:12:39.437Z,1.25
2023-02-27T15:14:41.833Z,1.17
2023-02-27T15:16:44.680Z,1.05
2023-02-27T15:19:12.077Z,0.75
2023-02-27T15:21:15.254Z,0.73
2023-02-27T15:23:28.479Z,0.90
2023-02-27T15:25:31.334Z,0.80
2023-02-27T15:27:37.118Z,1.80
2023-02-27T15:29:42.229Z,1.35
2023-02-27T15:31:46.343Z,0.90
2023-02-27T15:33:48.868Z,1.02
2023-02-27T15:35:51.717Z,1.10
2023-02-27T15:37:56.658Z,1.00
2023-02-27T15:40:00.182Z,1.10
2023-02-27T15:42:04.288Z,1.38
2023-02-27T15:44:06.023Z,0.85
2023-02-27T15:46:07.763Z,1.20
2023-02-27T15:48:14.221Z,0.80
2023-02-27T15:50:15.630Z,1.10
2023-02-27T15:52:23.227Z,0.98
2023-02-27T15:54:25.058Z,1.27
2023-02-27T15:56:33.362Z,1.10
2023-02-27T15:58:38.183Z,1.10
2023-02-27T16:00:39.730Z,0.95
2023-02-27T16:02:52.900Z,1.40
2023-02-27T16:04:54.666Z,1.77
2023-02-27T16:07:14.827Z,1.00
2023-02-27T16:09:24.482Z,1.50
2023-02-27T16:11:30.071Z,1.33
2023-02-27T16:13:37.097Z,1.50
2023-02-27T16:15:40.180Z,1.17
2023-02-27T16:17:59.285Z,1.10
2023-02-27T16:20:21.537Z,1.70
2023-02-27T16:22:23.615Z,1.58
2023-02-27T16:24:31.417Z,1.20
2023-02-27T16:26:36.804Z,1.20
2023-02-27T16:28:53.579Z,1.02
2023-02-27T16:30:55.334Z,1.42
2023-02-27T16:33:00.313Z,2.28
2023-02-27T16:35:18.011Z,2.22
2023-02-27T16:37:27.731Z,1.25
2023-02-27T16:39:29.907Z,1.17
2023-02-27T16:41:31.472Z,1.23
2023-02-27T16:43:33.669Z,1.40
2023-02-27T16:45:35.318Z,1.50
2023-02-27T16:47:36.855Z,1.33
2023-02-27T16:49:40.336Z,1.58
2023-02-27T16:51:41.809Z,1.67
2023-02-27T16:53:44.722Z,1.40
2023-02-27T16:55:46.216Z,1.65
2023-02-27T16:57:47.786Z,2.05
2023-02-27T16:59:49.227Z,2.45
2023-02-27T17:01:50.690Z,1.90
2023-02-27T17:03:53.106Z,1.77
2023-02-27T17:05:54.620Z,1.90
2023-02-27T17:07:56.115Z,1.40
2023-02-27T17:09:57.913Z,1.67
2023-02-27T17:11:59.396Z,1.83
2023-02-27T17:14:00.859Z,2.17
2023-02-27T17:16:04.138Z,2.70
2023-02-27T17:18:05.650Z,1.67
2023-02-27T17:20:08.101Z,1.85
2023-02-27T17:22:09.604Z,1.83
2023-02-27T17:24:11.102Z,1.77
2023-02-27T17:26:13.190Z,2.28
2023-02-27T17:28:14.725Z,1.83
2023-02-27T17:30:16.934Z,1.75
2023-02-27T17:32:18.441Z,2.30
2023-02-27T17:34:20.010Z,1.95
2023-02-27T17:36:22.596Z,1.73
2023-02-27T17:38:24.059Z,2.10
2023-02-27T17:40:26.451Z,1.70
2023-02-27T17:42:27.884Z,2.00
2023-02-27T17:44:29.428Z,1.88
2023-02-27T17:46:31.742Z,2.08
2023-02-27T17:48:33.648Z,2.38
2023-02-27T17:50:35.358Z,2.60
2023-02-27T17:52:37.422Z,6.28
2023-02-27T17:54:39.147Z,3.60
2023-02-27T17:56:40.637Z,2.85
2023-02-27T17:58:45.372Z,2.95
2023-02-27T18:00:46.949Z,2.42
2023-02-27T18:02:48.482Z,3.10
2023-02-27T18:04:50.374Z,2.70
2023-02-27T18:06:52.080Z,2.50
2023-02-27T18:08:53.584Z,3.03
2023-02-27T18:10:55.413Z,3.55
2023-02-27T18:12:56.866Z,3.13
2023-02-27T18:14:58.337Z,3.28
2023-02-27T18:16:59.915Z,2.90
2023-02-27T18:19:06.108Z,3.40
2023-02-27T18:21:14.211Z,3.70
2023-02-27T18:23:15.794Z,3.58
2023-02-27T18:25:17.290Z,3.88
2023-02-27T18:27:18.737Z,5.43
2023-02-27T18:29:20.231Z,4.68
2023-02-27T18:31:24.696Z,4.32
2023-02-27T18:33:27.421Z,4.25
2023-02-27T18:35:29.112Z,4.22
2023-02-27T18:37:30.599Z,6.50
2023-02-27T18:39:32.092Z,8.63
2023-02-27T18:41:33.886Z,7.30
2023-02-27T18:43:36.876Z,5.60
2023-02-27T18:45:38.586Z,3.88
2023-02-27T18:47:40.085Z,3.15
2023-02-27T18:49:41.670Z,4.60
2023-02-27T18:51:44.192Z,3.03
2023-02-27T18:53:48.088Z,2.20
2023-02-27T18:55:49.583Z,2.75
2023-02-27T18:57:51.123Z,3.80
2023-02-27T18:59:53.646Z,3.38
2023-02-27T19:01:55.240Z,2.90
2023-02-27T19:04:03.468Z,2.70
2023-02-27T19:06:05.336Z,2.80
2023-02-27T19:08:06.821Z,2.70
2023-02-27T19:10:09.800Z,3.35
2023-02-27T19:12:11.324Z,2.90
2023-02-27T19:14:15.863Z,2.92
2023-02-27T19:16:17.498Z,3.35
2023-02-27T19:18:19.351Z,3.03
2023-02-27T19:20:20.807Z,3.13
2023-02-27T19:22:22.398Z,3.50
2023-02-27T19:24:24.048Z,3.28
2023-02-27T19:26:25.770Z,3.28
2023-02-27T19:28:27.637Z,3.33
2023-02-27T19:30:29.292Z,2.90
2023-02-27T19:32:31.443Z,2.72
2023-02-27T19:34:33.665Z,3.10
2023-02-27T19:36:35.149Z,4.10
2023-02-27T19:38:37.350Z,3.28
2023-02-27T19:40:38.807Z,3.20
2023-02-27T19:42:40.860Z,3.65
2023-02-27T19:44:43.167Z,3.22
2023-02-27T19:46:46.835Z,4.53
2023-02-27T19:48:48.428Z,3.72
2023-02-27T19:50:50.016Z,3.80
2023-02-27T19:52:52.192Z,4.03
2023-02-27T19:54:54.322Z,4.90
2023-02-27T19:56:56.077Z,4.38
2023-02-27T19:58:57.841Z,3.40
2023-02-27T20:00:59.807Z,3.55
2023-02-27T20:03:01.389Z,3.50
2023-02-27T20:05:03.173Z,3.65
2023-02-27T20:07:04.711Z,4.50
2023-02-27T20:09:06.200Z,5.40
2023-02-27T20:11:07.770Z,5.80
2023-02-27T20:13:09.552Z,6.22
2023-02-27T20:15:11.741Z,6.60
2023-02-27T20:17:14.253Z,6.80
2023-02-27T20:19:18.040Z,5.85
2023-02-27T20:21:24.385Z,5.03
2023-02-27T20:23:26.078Z,5.03
2023-02-27T20:25:29.380Z,4.60
2023-02-27T20:27:30.912Z,4.60
2023-02-27T20:29:32.689Z,4.22
2023-02-27T20:31:36.181Z,4.20
2023-02-27T20:33:37.724Z,4.25
2023-02-27T20:35:40.075Z,4.15
2023-02-27T20:37:41.567Z,4.70
2023-02-27T20:39:45.162Z,4.07
2023-02-27T20:41:47.725Z,3.88
2023-02-27T20:43:49.886Z,4.18
2023-02-27T20:45:51.512Z,5.50
2023-02-27T20:47:53.678Z,4.28
2023-02-27T20:49:55.194Z,5.65
2023-02-27T20:51:58.543Z,7.10
2023-02-27T20:54:00.168Z,6.13
2023-02-27T20:56:02.266Z,6.00
2023-02-27T20:58:03.801Z,6.05
2023-02-27T21:00:05.899Z,6.28
2023-02-27T21:02:09.266Z,6.43
2023-02-27T21:04:10.884Z,6.80
2023-02-27T21:06:15.427Z,6.53
2023-02-27T21:08:17.821Z,6.57
2023-02-27T21:10:19.283Z,6.80
2023-02-27T21:12:20.750Z,7.90
2023-02-27T21:14:22.248Z,7.03
2023-02-27T21:16:25.634Z,6.65
2023-02-27T21:18:27.091Z,7.32
2023-02-27T21:20:28.559Z,6.35
2023-02-27T21:22:30.023Z,6.40
2023-02-27T21:24:32.433Z,5.80
2023-02-27T21:26:37.998Z,5.57
2023-02-27T21:28:47.598Z,5.35
2023-02-27T21:30:54.597Z,5.00
2023-02-27T21:32:57.745Z,4.57
2023-02-27T21:34:59.190Z,4.85
2023-02-27T21:37:02.034Z,4.45
2023-02-27T21:39:08.053Z,5.15
2023-02-27T21:41:12.569Z,5.45
2023-02-27T21:43:14.069Z,5.22
2023-02-27T21:45:15.652Z,4.85
2023-02-27T21:47:17.400Z,4.80
2023-02-27T21:49:22.678Z,4.45
2023-02-27T21:51:38.895Z,4.32
2023-02-27T21:53:42.041Z,4.65
2023-02-27T21:55:43.494Z,5.10
2023-02-27T21:57:44.994Z,4.75
2023-02-27T21:59:46.547Z,4.55
2023-02-27T22:01:48.898Z,4.22
2023-02-27T22:03:53.640Z,4.95
2023-02-27T22:05:55.077Z,5.32
2023-02-27T22:07:56.563Z,4.32
2023-02-27T22:09:58.020Z,5.05
2023-02-27T22:11:59.491Z,5.00
2023-02-27T22:14:01.039Z,5.13
2023-02-27T22:16:10.224Z,5.10
2023-02-27T22:18:11.720Z,5.20
2023-02-27T22:20:13.294Z,4.40
2023-02-27T22:22:14.785Z,4.55
2023-02-27T22:24:16.346Z,5.03
2023-02-27T22:26:21.303Z,5.15
2023-02-27T22:28:23.063Z,5.00
2023-02-27T22:30:24.518Z,4.82
2023-02-27T22:32:26.087Z,4.90
2023-02-27T22:34:27.633Z,4.88
2023-02-27T22:36:30.792Z,5.03
2023-02-27T22:38:32.302Z,4.93
2023-02-27T22:40:36.108Z,5.15
2023-02-27T22:42:37.684Z,4.50
2023-02-27T22:44:39.121Z,4.47
2023-02-27T22:46:47.044Z,5.40
2023-02-27T22:48:48.767Z,4.50
2023-02-27T22:51:05.857Z,5.03
2023-02-27T22:53:07.365Z,4.93
2023-02-27T22:55:09.112Z,5.35
2023-02-27T22:57:10.672Z,4.57
2023-02-27T22:59:12.255Z,4.72
2023-02-27T23:01:20.690Z,5.07
2023-02-27T23:03:22.282Z,4.68
2023-02-27T23:05:23.770Z,4.93
2023-02-27T23:07:25.259Z,4.90
2023-02-27T23:09:27.324Z,5.10
2023-02-27T23:11:29.241Z,5.13
2023-02-27T23:13:32.155Z,5.40
2023-02-27T23:15:35.260Z,5.85
2023-02-27T23:17:43.564Z,5.63
2023-02-27T23:19:50.790Z,4.75
2023-02-27T23:21:52.298Z,7.20
2023-02-27T23:23:53.909Z,7.25
2023-02-27T23:25:55.424Z,11.43
2023-02-27T23:27:56.897Z,8.65
2023-02-27T23:29:58.391Z,7.93
2023-02-27T23:31:59.920Z,6.85
2023-02-27T23:34:01.960Z,5.63
2023-02-27T23:36:04.221Z,6.55
2023-02-27T23:38:05.709Z,5.90
2023-02-27T23:40:08.065Z,5.97
2023-02-27T23:42:09.512Z,5.78
2023-02-27T23:44:11.006Z,5.40
2023-02-27T23:46:16.263Z,5.70
2023-02-27T23:48:18.209Z,5.43
2023-02-27T23:50:22.380Z,5.82
2023-02-27T23:52:23.840Z,5.03
2023-02-27T23:54:25.380Z,5.80
2023-02-27T23:56:29.454Z,6.05
2023-02-27T23:58:30.984Z,5.53
